Kasos Airport


Codes: LGKS/KSJ
Name: Kasos Airport
City: Kasos Island
Country: Greece
Elevation: 35 ft.
Wikipedia:

Photos at Kasos Airport


   Photos courtesy of SpottingLog. You can add your own sightings and photos by signing up for a free trial today.



No photos found.

Weather at Kasos Airport


Time (UTC)DescriptionTempratureWindCloud coverageVisibilityPressureHumidity
18-Apr-2024 00:00Clear Sky19°C9 mph, W3%10000m1005hPa84%
18-Apr-2024 03:00Clear Sky19°C4 mph, W2%10000m1006hPa85%
18-Apr-2024 06:00Few Clouds18°C16 mph, NW24%10000m1007hPa82%
18-Apr-2024 09:00Scattered Clouds18°C2 mph, SW27%10000m1010hPa79%
18-Apr-2024 12:00Few Clouds19°C4 mph, NE15%10000m1010hPa75%
18-Apr-2024 15:00Few Clouds19°C13 mph, NW11%10000m1011hPa78%
18-Apr-2024 18:00Clear Sky18°C11 mph, NW7%10000m1012hPa77%
18-Apr-2024 21:00Clear Sky18°C7 mph, NW0%10000m1012hPa73%
19-Apr-2024 00:00Clear Sky17°C2 mph, N5%10000m1012hPa75%
19-Apr-2024 03:00Few Clouds17°C7 mph, SE23%10000m1012hPa79%
19-Apr-2024 06:00Few Clouds17°C4 mph, SE12%10000m1013hPa78%
19-Apr-2024 09:00Scattered Clouds18°C2 mph, S39%10000m1014hPa73%
19-Apr-2024 12:00Broken Clouds18°C9 mph, S55%10000m1012hPa73%
19-Apr-2024 15:00Overcast Clouds18°C16 mph, S89%10000m1010hPa81%
19-Apr-2024 18:00Broken Clouds18°C22 mph, SE70%10000m1008hPa88%
19-Apr-2024 21:00Broken Clouds18°C20 mph, S56%10000m1008hPa87%
20-Apr-2024 00:00Broken Clouds18°C27 mph, SE78%10000m1005hPa86%
20-Apr-2024 03:00Overcast Clouds18°C20 mph, SW93%10000m1004hPa89%
20-Apr-2024 06:00Overcast Clouds17°C16 mph, NW94%10000m1007hPa67%
20-Apr-2024 09:00Broken Clouds17°C9 mph, SW59%10000m1009hPa64%
20-Apr-2024 12:00Scattered Clouds18°C7 mph, NW31%10000m1009hPa64%
20-Apr-2024 15:00Clear Sky17°C18 mph, NW0%10000m1010hPa68%
20-Apr-2024 18:00Clear Sky17°C20 mph, NW1%10000m1012hPa69%
20-Apr-2024 21:00Clear Sky17°C18 mph, NW5%10000m1013hPa72%
21-Apr-2024 00:00Clear Sky17°C16 mph, NW4%10000m1013hPa71%
21-Apr-2024 03:00Clear Sky17°C11 mph, NW0%10000m1013hPa71%
21-Apr-2024 06:00Clear Sky17°C7 mph, W0%10000m1014hPa74%
21-Apr-2024 09:00Clear Sky17°C7 mph, S1%10000m1016hPa69%
21-Apr-2024 12:00Clear Sky18°C16 mph, S7%10000m1015hPa76%
21-Apr-2024 15:00Clear Sky18°C16 mph, S6%10000m1015hPa72%
21-Apr-2024 18:00Few Clouds18°C16 mph, S16%10000m1015hPa78%
21-Apr-2024 21:00Broken Clouds17°C13 mph, SW70%10000m1015hPa75%
22-Apr-2024 00:00Broken Clouds17°C7 mph, SW57%10000m1015hPa72%
22-Apr-2024 03:00Overcast Clouds17°C9 mph, S93%10000m1015hPa72%
22-Apr-2024 06:00Overcast Clouds18°C9 mph, S96%10000m1017hPa70%
22-Apr-2024 09:00Broken Clouds18°C11 mph, SE82%10000m1017hPa70%
22-Apr-2024 12:00Overcast Clouds19°C13 mph, SE91%10000m1017hPa71%
22-Apr-2024 15:00Overcast Clouds19°C18 mph, SE100%10000m1016hPa79%
22-Apr-2024 18:00Overcast Clouds18°C20 mph, SE100%10000m1016hPa80%
22-Apr-2024 21:00Overcast Clouds19°C22 mph, SE100%10000m1014hPa78%